sensor_id;sensor_type;location;lat;lon;timestamp;pressure;altitude;pressure_sealevel;temperature;humidity
23059;BME280;30585;51.502;7.218;2023-12-22T00:00:00;99175.09;;;4.64;85.94
23059;BME280;30585;51.502;7.218;2023-12-22T00:02:28;99166.97;;;4.66;85.49
23059;BME280;30585;51.502;7.218;2023-12-22T00:04:56;99168.69;;;4.67;85.85
23059;BME280;30585;51.502;7.218;2023-12-22T00:07:24;99163.75;;;4.61;85.58
23059;BME280;30585;51.502;7.218;2023-12-22T00:09:52;99168.69;;;4.54;85.70
23059;BME280;30585;51.502;7.218;2023-12-22T00:12:21;99172.22;;;4.55;85.97
23059;BME280;30585;51.502;7.218;2023-12-22T00:14:49;99172.22;;;4.55;85.44
23059;BME280;30585;51.502;7.218;2023-12-22T00:17:17;99174.88;;;4.55;85.82
23059;BME280;30585;51.502;7.218;2023-12-22T00:19:45;99179.38;;;4.54;85.50
23059;BME280;30585;51.502;7.218;2023-12-22T00:22:12;99179.06;;;4.46;86.04
23059;BME280;30585;51.502;7.218;2023-12-22T00:24:40;99184.31;;;4.47;86.08
23059;BME280;30585;51.502;7.218;2023-12-22T00:27:08;99189.00;;;4.44;86.86
23059;BME280;30585;51.502;7.218;2023-12-22T00:29:37;99202.56;;;4.41;87.21
23059;BME280;30585;51.502;7.218;2023-12-22T00:32:05;99189.13;;;4.42;87.13
23059;BME280;30585;51.502;7.218;2023-12-22T00:34:33;99203.44;;;4.41;87.51
23059;BME280;30585;51.502;7.218;2023-12-22T00:37:01;99216.03;;;4.39;88.21
23059;BME280;30585;51.502;7.218;2023-12-22T00:39:31;99224.81;;;4.41;87.83
23059;BME280;30585;51.502;7.218;2023-12-22T00:41:59;99220.22;;;4.43;88.41
23059;BME280;30585;51.502;7.218;2023-12-22T00:44:27;99223.53;;;4.47;87.76
23059;BME280;30585;51.502;7.218;2023-12-22T00:46:57;99221.59;;;4.49;88.28
23059;BME280;30585;51.502;7.218;2023-12-22T00:49:25;99203.66;;;4.51;88.10
23059;BME280;30585;51.502;7.218;2023-12-22T00:51:53;99195.09;;;4.46;87.97
23059;BME280;30585;51.502;7.218;2023-12-22T00:54:21;99202.06;;;4.49;87.90
23059;BME280;30585;51.502;7.218;2023-12-22T00:56:48;99203.75;;;4.50;88.43
23059;BME280;30585;51.502;7.218;2023-12-22T00:59:16;99216.78;;;4.41;88.53
23059;BME280;30585;51.502;7.218;2023-12-22T01:01:44;99196.81;;;4.47;88.46
23059;BME280;30585;51.502;7.218;2023-12-22T01:04:13;99202.06;;;4.49;88.02
23059;BME280;30585;51.502;7.218;2023-12-22T01:06:41;99190.06;;;4.41;88.93
23059;BME280;30585;51.502;7.218;2023-12-22T01:09:09;99199.38;;;4.49;88.54
23059;BME280;30585;51.502;7.218;2023-12-22T01:11:37;99210.56;;;4.54;88.37
23059;BME280;30585;51.502;7.218;2023-12-22T01:14:05;99204.16;;;4.56;87.88
23059;BME280;30585;51.502;7.218;2023-12-22T01:16:33;99224.78;;;4.54;88.55
23059;BME280;30585;51.502;7.218;2023-12-22T01:19:00;99212.94;;;4.58;88.57
23059;BME280;30585;51.502;7.218;2023-12-22T01:21:30;99217.09;;;4.62;88.28
23059;BME280;30585;51.502;7.218;2023-12-22T01:23:58;99217.19;;;4.61;88.96
23059;BME280;30585;51.502;7.218;2023-12-22T01:26:26;99215.06;;;4.66;88.98
23059;BME280;30585;51.502;7.218;2023-12-22T01:28:54;99239.13;;;4.66;89.17
23059;BME280;30585;51.502;7.218;2023-12-22T01:31:22;99224.69;;;4.68;89.07
23059;BME280;30585;51.502;7.218;2023-12-22T01:33:49;99219.03;;;4.73;88.87
23059;BME280;30585;51.502;7.218;2023-12-22T01:36:17;99216.47;;;4.71;89.10
23059;BME280;30585;51.502;7.218;2023-12-22T01:38:46;99213.31;;;4.77;87.74
23059;BME280;30585;51.502;7.218;2023-12-22T01:41:14;99222.19;;;4.78;87.66
23059;BME280;30585;51.502;7.218;2023-12-22T01:43:42;99227.31;;;4.81;87.42
23059;BME280;30585;51.502;7.218;2023-12-22T01:46:11;99239.63;;;4.84;86.90
23059;BME280;30585;51.502;7.218;2023-12-22T01:48:40;99245.50;;;4.89;84.72
23059;BME280;30585;51.502;7.218;2023-12-22T01:51:08;99238.56;;;4.86;82.92
23059;BME280;30585;51.502;7.218;2023-12-22T01:53:36;99256.63;;;4.82;82.43
23059;BME280;30585;51.502;7.218;2023-12-22T01:56:07;99264.31;;;4.87;80.79
23059;BME280;30585;51.502;7.218;2023-12-22T01:58:36;99287.84;;;4.82;80.60
23059;BME280;30585;51.502;7.218;2023-12-22T02:01:05;99262.19;;;4.79;81.75
23059;BME280;30585;51.502;7.218;2023-12-22T02:03:34;99246.81;;;4.70;82.96
23059;BME280;30585;51.502;7.218;2023-12-22T02:06:04;99261.44;;;4.65;82.93
23059;BME280;30585;51.502;7.218;2023-12-22T02:08:33;99250.53;;;4.55;83.01
23059;BME280;30585;51.502;7.218;2023-12-22T02:11:01;99255.78;;;4.57;83.16
23059;BME280;30585;51.502;7.218;2023-12-22T02:13:31;99255.78;;;4.57;83.12
23059;BME280;30585;51.502;7.218;2023-12-22T02:16:03;99259.97;;;4.48;83.57
23059;BME280;30585;51.502;7.218;2023-12-22T02:18:34;99260.91;;;4.47;83.71
23059;BME280;30585;51.502;7.218;2023-12-22T02:21:02;99261.78;;;4.47;83.87
23059;BME280;30585;51.502;7.218;2023-12-22T02:23:32;99246.16;;;4.41;83.72
23059;BME280;30585;51.502;7.218;2023-12-22T02:26:06;99257.50;;;4.45;83.78
23059;BME280;30585;51.502;7.218;2023-12-22T02:28:38;99270.53;;;4.50;83.89
23059;BME280;30585;51.502;7.218;2023-12-22T02:31:13;99261.97;;;4.44;84.10
23059;BME280;30585;51.502;7.218;2023-12-22T02:33:44;99280.69;;;4.44;84.29
23059;BME280;30585;51.502;7.218;2023-12-22T02:36:15;99271.59;;;4.47;84.56
23059;BME280;30585;51.502;7.218;2023-12-22T02:38:46;99274.19;;;4.49;85.18
23059;BME280;30585;51.502;7.218;2023-12-22T02:41:14;99262.28;;;4.53;84.74
23059;BME280;30585;51.502;7.218;2023-12-22T02:43:42;99259.97;;;4.48;84.90
23059;BME280;30585;51.502;7.218;2023-12-22T02:46:13;99259.22;;;4.46;84.29
23059;BME280;30585;51.502;7.218;2023-12-22T02:48:41;99251.72;;;4.38;85.09
23059;BME280;30585;51.502;7.218;2023-12-22T02:51:09;99233.56;;;4.43;84.88
23059;BME280;30585;51.502;7.218;2023-12-22T02:53:36;99236.13;;;4.45;84.38
23059;BME280;30585;51.502;7.218;2023-12-22T02:56:06;99241.25;;;4.48;84.57
23059;BME280;30585;51.502;7.218;2023-12-22T02:58:34;99242.53;;;4.42;85.42
23059;BME280;30585;51.502;7.218;2023-12-22T03:01:02;99252.47;;;4.40;85.03
23059;BME280;30585;51.502;7.218;2023-12-22T03:03:30;99246.47;;;4.37;85.01
23059;BME280;30585;51.502;7.218;2023-12-22T03:05:58;99252.78;;;4.36;85.29
23059;BME280;30585;51.502;7.218;2023-12-22T03:08:25;99250.00;;;4.37;85.44
23059;BME280;30585;51.502;7.218;2023-12-22T03:10:53;99252.56;;;4.39;85.45
23059;BME280;30585;51.502;7.218;2023-12-22T03:13:22;99247.22;;;4.39;85.14
23059;BME280;30585;51.502;7.218;2023-12-22T03:15:50;99271.91;;;4.42;84.82
23059;BME280;30585;51.502;7.218;2023-12-22T03:18:18;99273.13;;;4.51;85.48
23059;BME280;30585;51.502;7.218;2023-12-22T03:20:46;99283.66;;;4.53;85.43
23059;BME280;30585;51.502;7.218;2023-12-22T03:23:13;99292.66;;;4.52;86.41
23059;BME280;30585;51.502;7.218;2023-12-22T03:25:41;99286.13;;;4.56;85.78
23059;BME280;30585;51.502;7.218;2023-12-22T03:28:09;99235.50;;;4.29;86.13
23059;BME280;30585;51.502;7.218;2023-12-22T03:30:38;99290.09;;;4.63;85.56
23059;BME280;30585;51.502;7.218;2023-12-22T03:33:06;99288.47;;;4.60;86.02
23059;BME280;30585;51.502;7.218;2023-12-22T03:35:34;99291.81;;;4.64;86.92
23059;BME280;30585;51.502;7.218;2023-12-22T03:38:02;99292.56;;;4.66;85.97
23059;BME280;30585;51.502;7.218;2023-12-22T03:40:30;99289.88;;;4.66;86.14
23059;BME280;30585;51.502;7.218;2023-12-22T03:42:58;99285.50;;;4.65;86.23
23059;BME280;30585;51.502;7.218;2023-12-22T03:45:26;99275.00;;;4.74;86.71
23059;BME280;30585;51.502;7.218;2023-12-22T03:47:55;99267.72;;;4.76;85.63
23059;BME280;30585;51.502;7.218;2023-12-22T03:50:23;99264.88;;;4.67;86.30
23059;BME280;30585;51.502;7.218;2023-12-22T03:52:50;99267.44;;;4.68;87.94
23059;BME280;30585;51.502;7.218;2023-12-22T03:55:18;99263.69;;;4.71;87.58
23059;BME280;30585;51.502;7.218;2023-12-22T03:57:46;99287.75;;;4.71;88.11
23059;BME280;30585;51.502;7.218;2023-12-22T04:00:15;99272.13;;;4.65;89.03
23059;BME280;30585;51.502;7.218;2023-12-22T04:02:43;99246.81;;;4.58;88.51
23059;BME280;30585;51.502;7.218;2023-12-22T04:05:12;99257.28;;;4.61;88.61
23059;BME280;30585;51.502;7.218;2023-12-22T04:07:40;99275.03;;;4.62;89.10
23059;BME280;30585;51.502;7.218;2023-12-22T04:10:08;99285.91;;;4.59;89.51
23059;BME280;30585;51.502;7.218;2023-12-22T04:12:36;99265.38;;;4.34;90.09
23059;BME280;30585;51.502;7.218;2023-12-22T04:15:05;99317.13;;;4.58;89.93
23059;BME280;30585;51.502;7.218;2023-12-22T04:17:33;99330.56;;;4.44;88.90
23059;BME280;30585;51.502;7.218;2023-12-22T04:20:01;99341.19;;;4.19;88.85
23059;BME280;30585;51.502;7.218;2023-12-22T04:22:30;99334.16;;;3.91;90.61
23059;BME280;30585;51.502;7.218;2023-12-22T04:24:58;99310.34;;;3.88;90.84
23059;BME280;30585;51.502;7.218;2023-12-22T04:27:26;99295.81;;;3.79;90.01
23059;BME280;30585;51.502;7.218;2023-12-22T04:29:54;99316.72;;;3.85;90.07
23059;BME280;30585;51.502;7.218;2023-12-22T04:32:22;99223.63;;;3.41;88.58
23059;BME280;30585;51.502;7.218;2023-12-22T04:34:49;99303.75;;;3.93;89.30
23059;BME280;30585;51.502;7.218;2023-12-22T04:37:17;99302.03;;;3.92;89.68
23059;BME280;30585;51.502;7.218;2023-12-22T04:39:46;99318.34;;;3.88;90.46
23059;BME280;30585;51.502;7.218;2023-12-22T04:42:14;99319.75;;;3.93;90.46
23059;BME280;30585;51.502;7.218;2023-12-22T04:44:42;99324.34;;;3.91;91.08
23059;BME280;30585;51.502;7.218;2023-12-22T04:47:10;99326.34;;;3.88;90.54
23059;BME280;30585;51.502;7.218;2023-12-22T04:49:39;99336.94;;;3.89;91.51
23059;BME280;30585;51.502;7.218;2023-12-22T04:52:06;99347.50;;;3.91;91.86
23059;BME280;30585;51.502;7.218;2023-12-22T04:54:34;99345.03;;;3.88;91.48
23059;BME280;30585;51.502;7.218;2023-12-22T04:57:04;99328.06;;;3.89;92.46
23059;BME280;30585;51.502;7.218;2023-12-22T04:59:31;99335.13;;;3.90;91.89
23059;BME280;30585;51.502;7.218;2023-12-22T05:01:58;99339.16;;;3.83;91.66
23059;BME280;30585;51.502;7.218;2023-12-22T05:04:27;99324.44;;;3.90;92.18
23059;BME280;30585;51.502;7.218;2023-12-22T05:06:54;99320.91;;;3.89;91.97
23059;BME280;30585;51.502;7.218;2023-12-22T05:09:22;99321.97;;;3.87;91.90
23059;BME280;30585;51.502;7.218;2023-12-22T05:11:51;99335.13;;;3.90;91.64
23059;BME280;30585;51.502;7.218;2023-12-22T05:14:20;99332.34;;;3.91;91.93
23059;BME280;30585;51.502;7.218;2023-12-22T05:16:48;99345.03;;;3.88;91.76
23059;BME280;30585;51.502;7.218;2023-12-22T05:19:17;99337.22;;;3.85;92.13
23059;BME280;30585;51.502;7.218;2023-12-22T05:21:45;99349.41;;;3.89;91.63
23059;BME280;30585;51.502;7.218;2023-12-22T05:24:12;99344.28;;;3.86;91.89
23059;BME280;30585;51.502;7.218;2023-12-22T05:26:40;99340.91;;;3.96;91.26
23059;BME280;30585;51.502;7.218;2023-12-22T05:29:08;99356.06;;;3.96;91.04
23059;BME280;30585;51.502;7.218;2023-12-22T05:31:38;99360.34;;;3.98;91.80
23059;BME280;30585;51.502;7.218;2023-12-22T05:34:06;99387.91;;;3.99;91.49
23059;BME280;30585;51.502;7.218;2023-12-22T05:36:34;99363.31;;;3.94;91.27
23059;BME280;30585;51.502;7.218;2023-12-22T05:39:02;99354.34;;;3.95;91.61
23059;BME280;30585;51.502;7.218;2023-12-22T05:41:32;99360.06;;;4.03;90.73
23059;BME280;30585;51.502;7.218;2023-12-22T05:44:00;99361.97;;;4.01;91.00
23059;BME280;30585;51.502;7.218;2023-12-22T05:46:28;99368.28;;;4.00;90.88
23059;BME280;30585;51.502;7.218;2023-12-22T05:48:57;99373.31;;;4.04;90.76
23059;BME280;30585;51.502;7.218;2023-12-22T05:51:26;99367.88;;;4.06;91.41
23059;BME280;30585;51.502;7.218;2023-12-22T05:53:54;99370.41;;;4.07;91.28
23059;BME280;30585;51.502;7.218;2023-12-22T05:56:21;99384.09;;;4.03;90.80
23059;BME280;30585;51.502;7.218;2023-12-22T05:58:50;99397.78;;;4.11;90.87
23059;BME280;30585;51.502;7.218;2023-12-22T06:01:18;99399.69;;;4.09;91.20
23059;BME280;30585;51.502;7.218;2023-12-22T06:03:46;99383.56;;;4.10;91.35
23059;BME280;30585;51.502;7.218;2023-12-22T06:06:16;99405.69;;;4.12;91.29
23059;BME280;30585;51.502;7.218;2023-12-22T06:08:45;99412.72;;;4.13;91.64
23059;BME280;30585;51.502;7.218;2023-12-22T06:11:13;99395.84;;;4.13;91.60
23059;BME280;30585;51.502;7.218;2023-12-22T06:13:41;99391.19;;;4.17;91.73
23059;BME280;30585;51.502;7.218;2023-12-22T06:16:11;99384.13;;;4.16;91.85
23059;BME280;30585;51.502;7.218;2023-12-22T06:18:41;99382.97;;;4.20;92.29
23059;BME280;30585;51.502;7.218;2023-12-22T06:21:09;99383.94;;;4.19;91.77
23059;BME280;30585;51.502;7.218;2023-12-22T06:23:39;99383.53;;;4.25;92.22
23059;BME280;30585;51.502;7.218;2023-12-22T06:26:09;99370.66;;;4.17;92.44
23059;BME280;30585;51.502;7.218;2023-12-22T06:28:38;99290.94;;;3.59;91.70
23059;BME280;30585;51.502;7.218;2023-12-22T06:31:07;99374.09;;;4.19;92.00
23059;BME280;30585;51.502;7.218;2023-12-22T06:33:36;99376.88;;;4.18;92.18
23059;BME280;30585;51.502;7.218;2023-12-22T06:36:04;99390.13;;;4.19;92.55
23059;BME280;30585;51.502;7.218;2023-12-22T06:38:32;99397.94;;;4.22;91.96
23059;BME280;30585;51.502;7.218;2023-12-22T06:41:01;99385.53;;;4.21;92.14
23059;BME280;30585;51.502;7.218;2023-12-22T06:43:30;99382.31;;;4.16;92.16
23059;BME280;30585;51.502;7.218;2023-12-22T06:45:57;99379.63;;;4.16;92.05
23059;BME280;30585;51.502;7.218;2023-12-22T06:48:26;99347.13;;;3.97;91.70
23059;BME280;30585;51.502;7.218;2023-12-22T06:50:55;99405.19;;;4.20;92.42
23059;BME280;30585;51.502;7.218;2023-12-22T06:53:23;99392.03;;;4.17;92.27
23059;BME280;30585;51.502;7.218;2023-12-22T06:55:52;99391.19;;;4.17;92.10
23059;BME280;30585;51.502;7.218;2023-12-22T06:58:21;99375.34;;;4.13;92.51
23059;BME280;30585;51.502;7.218;2023-12-22T07:00:52;99372.88;;;4.10;92.64
23059;BME280;30585;51.502;7.218;2023-12-22T07:03:20;99372.69;;;4.13;93.45
23059;BME280;30585;51.502;7.218;2023-12-22T07:05:47;99359.34;;;4.13;93.29
23059;BME280;30585;51.502;7.218;2023-12-22T07:08:15;99367.16;;;4.17;93.20
23059;BME280;30585;51.502;7.218;2023-12-22T07:10:43;99360.94;;;4.16;93.14
23059;BME280;30585;51.502;7.218;2023-12-22T07:13:12;99356.16;;;4.21;93.62
23059;BME280;30585;51.502;7.218;2023-12-22T07:15:41;99353.50;;;4.21;93.66
23059;BME280;30585;51.502;7.218;2023-12-22T07:18:09;99346.44;;;4.20;93.00
23059;BME280;30585;51.502;7.218;2023-12-22T07:20:37;99363.97;;;4.24;93.23
23059;BME280;30585;51.502;7.218;2023-12-22T07:23:05;99349.56;;;4.27;92.88
23059;BME280;30585;51.502;7.218;2023-12-22T07:25:36;99346.56;;;4.31;92.54
23059;BME280;30585;51.502;7.218;2023-12-22T07:28:05;99349.88;;;4.35;92.55
23059;BME280;30585;51.502;7.218;2023-12-22T07:30:33;99356.28;;;4.32;92.58
23059;BME280;30585;51.502;7.218;2023-12-22T07:33:03;99351.69;;;4.34;92.56
23059;BME280;30585;51.502;7.218;2023-12-22T07:35:32;99356.63;;;4.40;92.61
23059;BME280;30585;51.502;7.218;2023-12-22T07:37:59;99354.72;;;4.42;91.97
23059;BME280;30585;51.502;7.218;2023-12-22T07:40:29;99354.84;;;4.54;91.89
23059;BME280;30585;51.502;7.218;2023-12-22T07:42:57;99366.81;;;4.61;91.72
23059;BME280;30585;51.502;7.218;2023-12-22T07:45:25;99355.81;;;4.65;91.81
23059;BME280;30585;51.502;7.218;2023-12-22T07:47:54;99360.09;;;4.68;91.96
23059;BME280;30585;51.502;7.218;2023-12-22T07:50:24;99353.50;;;4.73;90.94
23059;BME280;30585;51.502;7.218;2023-12-22T07:52:52;99341.72;;;4.76;91.76
23059;BME280;30585;51.502;7.218;2023-12-22T07:55:20;99331.78;;;4.78;91.42
23059;BME280;30585;51.502;7.218;2023-12-22T07:57:48;99331.56;;;4.81;90.94
23059;BME280;30585;51.502;7.218;2023-12-22T08:00:16;99334.44;;;5.03;89.43
23059;BME280;30585;51.502;7.218;2023-12-22T08:02:44;99333.78;;;5.00;90.10
23059;BME280;30585;51.502;7.218;2023-12-22T08:05:13;99323.53;;;5.06;90.21
23059;BME280;30585;51.502;7.218;2023-12-22T08:07:42;99325.84;;;5.24;89.87
23059;BME280;30585;51.502;7.218;2023-12-22T08:10:10;99327.03;;;5.32;89.64
23059;BME280;30585;51.502;7.218;2023-12-22T08:12:38;99330.34;;;5.36;89.66
23059;BME280;30585;51.502;7.218;2023-12-22T08:15:07;99336.94;;;5.43;89.34
23059;BME280;30585;51.502;7.218;2023-12-22T08:17:47;99348.41;;;5.45;89.82
23059;BME280;30585;51.502;7.218;2023-12-22T08:20:19;99348.94;;;5.50;90.20
23059;BME280;30585;51.502;7.218;2023-12-22T08:22:56;99356.53;;;5.56;90.40
23059;BME280;30585;51.502;7.218;2023-12-22T08:25:29;99344.53;;;5.62;90.05
23059;BME280;30585;51.502;7.218;2023-12-22T08:27:57;99365.25;;;5.71;89.87
23059;BME280;30585;51.502;7.218;2023-12-22T08:30:25;99366.97;;;5.72;90.25
23059;BME280;30585;51.502;7.218;2023-12-22T08:32:52;99363.09;;;5.76;90.21
23059;BME280;30585;51.502;7.218;2023-12-22T08:35:21;99339.66;;;5.67;91.09
23059;BME280;30585;51.502;7.218;2023-12-22T08:37:49;99364.00;;;5.88;90.42
23059;BME280;30585;51.502;7.218;2023-12-22T08:40:18;99347.66;;;5.92;91.14
23059;BME280;30585;51.502;7.218;2023-12-22T08:42:54;99331.50;;;5.81;90.93
23059;BME280;30585;51.502;7.218;2023-12-22T08:45:27;99352.00;;;6.06;89.99
23059;BME280;30585;51.502;7.218;2023-12-22T08:47:56;99347.50;;;6.06;90.35
23059;BME280;30585;51.502;7.218;2023-12-22T08:50:24;99348.25;;;6.08;90.08
23059;BME280;30585;51.502;7.218;2023-12-22T08:52:52;99361.78;;;6.18;89.65
23059;BME280;30585;51.502;7.218;2023-12-22T08:55:21;99357.47;;;6.28;89.27
23059;BME280;30585;51.502;7.218;2023-12-22T08:57:49;99355.53;;;6.30;89.60
23059;BME280;30585;51.502;7.218;2023-12-22T09:00:28;99361.84;;;6.29;89.36
23059;BME280;30585;51.502;7.218;2023-12-22T09:02:55;99372.94;;;6.36;89.02
23059;BME280;30585;51.502;7.218;2023-12-22T09:05:23;99363.47;;;6.43;89.43
23059;BME280;30585;51.502;7.218;2023-12-22T09:07:51;99351.03;;;6.31;89.32
23059;BME280;30585;51.502;7.218;2023-12-22T09:10:21;99362.63;;;6.42;89.83
23059;BME280;30585;51.502;7.218;2023-12-22T09:12:49;99351.66;;;6.45;89.38
23059;BME280;30585;51.502;7.218;2023-12-22T09:15:17;99337.94;;;6.50;89.40
23059;BME280;30585;51.502;7.218;2023-12-22T09:17:47;99343.91;;;6.54;89.18
23059;BME280;30585;51.502;7.218;2023-12-22T09:20:16;99344.03;;;6.52;89.77
23059;BME280;30585;51.502;7.218;2023-12-22T09:22:44;99347.19;;;6.57;89.16
23059;BME280;30585;51.502;7.218;2023-12-22T09:25:11;99346.09;;;6.60;88.76
23059;BME280;30585;51.502;7.218;2023-12-22T09:27:41;99342.69;;;6.58;86.41
23059;BME280;30585;51.502;7.218;2023-12-22T09:30:09;99357.53;;;6.50;87.46
23059;BME280;30585;51.502;7.218;2023-12-22T09:32:37;99343.50;;;6.47;87.95
23059;BME280;30585;51.502;7.218;2023-12-22T09:35:05;99341.28;;;6.41;87.60
23059;BME280;30585;51.502;7.218;2023-12-22T09:37:34;99344.31;;;6.36;88.75
23059;BME280;30585;51.502;7.218;2023-12-22T09:40:05;99340.97;;;6.22;88.90
23059;BME280;30585;51.502;7.218;2023-12-22T09:42:37;99349.53;;;6.27;88.31
23059;BME280;30585;51.502;7.218;2023-12-22T09:45:11;99266.63;;;5.77;88.96
23059;BME280;30585;51.502;7.218;2023-12-22T09:47:39;99343.47;;;6.12;90.04
23059;BME280;30585;51.502;7.218;2023-12-22T09:50:09;99343.97;;;6.06;90.78
23059;BME280;30585;51.502;7.218;2023-12-22T09:52:38;99340.19;;;6.08;90.73
23059;BME280;30585;51.502;7.218;2023-12-22T09:55:08;99361.22;;;6.02;91.65
23059;BME280;30585;51.502;7.218;2023-12-22T09:57:37;99346.34;;;5.98;91.52
23059;BME280;30585;51.502;7.218;2023-12-22T10:00:06;99344.84;;;5.94;91.97
23059;BME280;30585;51.502;7.218;2023-12-22T10:02:37;99343.69;;;5.85;92.46
23059;BME280;30585;51.502;7.218;2023-12-22T10:05:05;99335.56;;;5.87;92.66
23059;BME280;30585;51.502;7.218;2023-12-22T10:07:33;99335.09;;;5.93;92.89
23059;BME280;30585;51.502;7.218;2023-12-22T10:10:02;99319.34;;;5.88;92.97
23059;BME280;30585;51.502;7.218;2023-12-22T10:12:33;99319.03;;;5.93;92.75
23059;BME280;30585;51.502;7.218;2023-12-22T10:15:02;99319.03;;;5.93;93.26
23059;BME280;30585;51.502;7.218;2023-12-22T10:17:30;99324.41;;;5.93;93.18
23059;BME280;30585;51.502;7.218;2023-12-22T10:20:00;99318.94;;;5.94;93.43
23059;BME280;30585;51.502;7.218;2023-12-22T10:22:29;99317.97;;;5.95;93.89
23059;BME280;30585;51.502;7.218;2023-12-22T10:24:57;99303.38;;;5.99;93.38
23059;BME280;30585;51.502;7.218;2023-12-22T10:27:25;99296.94;;;6.02;93.29
23059;BME280;30585;51.502;7.218;2023-12-22T10:29:54;99295.25;;;6.01;93.37
23059;BME280;30585;51.502;7.218;2023-12-22T10:32:22;99297.91;;;6.01;93.78
23059;BME280;30585;51.502;7.218;2023-12-22T10:34:51;99293.53;;;6.00;93.20
23059;BME280;30585;51.502;7.218;2023-12-22T10:37:20;99290.00;;;5.99;93.84
23059;BME280;30585;51.502;7.218;2023-12-22T10:39:52;99279.91;;;6.03;93.81
23059;BME280;30585;51.502;7.218;2023-12-22T10:42:20;99283.97;;;6.08;93.95
23059;BME280;30585;51.502;7.218;2023-12-22T10:44:48;99284.19;;;6.05;93.77
23059;BME280;30585;51.502;7.218;2023-12-22T10:47:18;99298.22;;;6.09;94.21
23059;BME280;30585;51.502;7.218;2023-12-22T10:49:48;99312.56;;;6.08;93.86
23059;BME280;30585;51.502;7.218;2023-12-22T10:52:16;99298.31;;;6.07;94.44
23059;BME280;30585;51.502;7.218;2023-12-22T10:54:48;99286.53;;;6.10;94.82
23059;BME280;30585;51.502;7.218;2023-12-22T10:57:17;99269.84;;;6.17;94.76
23059;BME280;30585;51.502;7.218;2023-12-22T10:59:47;99286.78;;;6.18;94.83
23059;BME280;30585;51.502;7.218;2023-12-22T11:02:18;99284.59;;;6.23;95.16
23059;BME280;30585;51.502;7.218;2023-12-22T11:04:56;99287.91;;;6.27;94.81
23059;BME280;30585;51.502;7.218;2023-12-22T11:07:24;99301.09;;;6.30;94.09
23059;BME280;30585;51.502;7.218;2023-12-22T11:09:56;99295.59;;;6.31;94.18
23059;BME280;30585;51.502;7.218;2023-12-22T11:12:25;99285.59;;;6.33;94.02
23059;BME280;30585;51.502;7.218;2023-12-22T11:14:55;99274.66;;;6.36;93.89
23059;BME280;30585;51.502;7.218;2023-12-22T11:17:26;99274.41;;;6.39;93.82
23059;BME280;30585;51.502;7.218;2023-12-22T11:19:56;99277.34;;;6.36;94.31
23059;BME280;30585;51.502;7.218;2023-12-22T11:22:25;99277.34;;;6.36;94.30
23059;BME280;30585;51.502;7.218;2023-12-22T11:24:55;99282.69;;;6.36;94.30
23059;BME280;30585;51.502;7.218;2023-12-22T11:27:25;99265.63;;;6.37;94.61
23059;BME280;30585;51.502;7.218;2023-12-22T11:29:54;99202.72;;;5.97;94.39
23059;BME280;30585;51.502;7.218;2023-12-22T11:32:24;99261.53;;;6.44;94.04
23059;BME280;30585;51.502;7.218;2023-12-22T11:34:53;99273.56;;;6.39;94.25
23059;BME280;30585;51.502;7.218;2023-12-22T11:37:22;99266.88;;;6.44;93.98
23059;BME280;30585;51.502;7.218;2023-12-22T11:39:50;99271.03;;;6.48;93.83
23059;BME280;30585;51.502;7.218;2023-12-22T11:42:24;99279.66;;;6.41;94.45
23059;BME280;30585;51.502;7.218;2023-12-22T11:44:53;99287.69;;;6.41;94.52
23059;BME280;30585;51.502;7.218;2023-12-22T11:47:22;99283.09;;;6.43;94.69
23059;BME280;30585;51.502;7.218;2023-12-22T11:49:50;99279.53;;;6.42;94.75
23059;BME280;30585;51.502;7.218;2023-12-22T11:52:25;99264.91;;;6.35;95.51
23059;BME280;30585;51.502;7.218;2023-12-22T11:54:55;99280.53;;;6.41;95.09
23059;BME280;30585;51.502;7.218;2023-12-22T11:57:37;99274.41;;;6.39;95.49
23059;BME280;30585;51.502;7.218;2023-12-22T12:00:07;99272.47;;;6.41;95.41
23059;BME280;30585;51.502;7.218;2023-12-22T12:02:36;99212.63;;;6.07;95.28
23059;BME280;30585;51.502;7.218;2023-12-22T12:05:07;99261.28;;;6.47;95.20
23059;BME280;30585;51.502;7.218;2023-12-22T12:07:40;99246.06;;;6.48;95.64
23059;BME280;30585;51.502;7.218;2023-12-22T12:10:08;99251.53;;;6.46;95.62
23059;BME280;30585;51.502;7.218;2023-12-22T12:12:37;99244.47;;;6.45;95.56
23059;BME280;30585;51.502;7.218;2023-12-22T12:15:10;99238.03;;;6.48;95.96
23059;BME280;30585;51.502;7.218;2023-12-22T12:17:41;99195.25;;;6.24;95.26
23059;BME280;30585;51.502;7.218;2023-12-22T12:20:10;99222.31;;;6.32;95.30
23059;BME280;30585;51.502;7.218;2023-12-22T12:22:39;99240.81;;;6.58;95.69
23059;BME280;30585;51.502;7.218;2023-12-22T12:25:08;99220.34;;;6.57;95.73
23059;BME280;30585;51.502;7.218;2023-12-22T12:28:00;99225.38;;;6.61;96.08
23059;BME280;30585;51.502;7.218;2023-12-22T12:30:30;99224.28;;;6.64;95.73
23059;BME280;30585;51.502;7.218;2023-12-22T12:32:59;99234.13;;;6.63;96.25
23059;BME280;30585;51.502;7.218;2023-12-22T12:35:29;99235.13;;;6.62;96.42
23059;BME280;30585;51.502;7.218;2023-12-22T12:37:57;99219.53;;;6.67;96.84
23059;BME280;30585;51.502;7.218;2023-12-22T12:40:27;99212.84;;;6.73;96.88
23059;BME280;30585;51.502;7.218;2023-12-22T12:43:00;99213.06;;;6.81;96.17
23059;BME280;30585;51.502;7.218;2023-12-22T12:45:28;99218.41;;;6.81;96.40
23059;BME280;30585;51.502;7.218;2023-12-22T12:47:57;99224.66;;;6.93;96.00
23059;BME280;30585;51.502;7.218;2023-12-22T12:50:28;99216.97;;;6.99;96.14
23059;BME280;30585;51.502;7.218;2023-12-22T12:52:59;99226.56;;;7.02;96.35
23059;BME280;30585;51.502;7.218;2023-12-22T12:55:27;99213.78;;;7.16;95.62
23059;BME280;30585;51.502;7.218;2023-12-22T12:57:55;99217.31;;;7.17;95.80
23059;BME280;30585;51.502;7.218;2023-12-22T13:00:29;99219.34;;;7.25;95.39
23059;BME280;30585;51.502;7.218;2023-12-22T13:03:00;99219.59;;;7.33;95.04
23059;BME280;30585;51.502;7.218;2023-12-22T13:05:29;99158.09;;;6.98;95.20
23059;BME280;30585;51.502;7.218;2023-12-22T13:08:07;99215.69;;;7.37;94.61
23059;BME280;30585;51.502;7.218;2023-12-22T13:10:36;99203.34;;;7.45;93.55
23059;BME280;30585;51.502;7.218;2023-12-22T13:13:05;99178.25;;;7.35;93.19
23059;BME280;30585;51.502;7.218;2023-12-22T13:15:34;99198.13;;;7.44;92.52
23059;BME280;30585;51.502;7.218;2023-12-22T13:18:03;99201.78;;;7.43;92.29